Time;durP1;ratioP1;P1;durP2;ratioP2;P2;SDS_P1;SDS_P2;PMS_P1;PMS_P2;Temp;Humidity;BMP_temperature;BMP_pressure;BME280_temperature;BME280_humidity;BME280_pressure;Samples;Min_cycle;Max_cycle;Signal;HPM_P1;HPM_P2
2023/11/28 00:01:57;;;;;;;23.52;13.30;;;1.70;99.90;;;;;;6269831;22;20086;-69
2023/11/28 00:04:43;;;;;;;20.20;11.85;;;1.70;99.90;;;;;;6269847;22;20038;-69
2023/11/28 00:07:30;;;;;;;23.27;13.07;;;1.70;99.90;;;;;;6269397;22;20004;-68
2023/11/28 00:10:16;;;;;;;19.15;11.77;;;1.70;99.90;;;;;;6269820;22;20093;-68
2023/11/28 00:13:02;;;;;;;21.73;12.52;;;1.70;99.90;;;;;;6269217;22;20014;-69
2023/11/28 00:15:48;;;;;;;21.13;12.15;;;1.70;99.90;;;;;;6270382;22;20083;-69
2023/11/28 00:18:34;;;;;;;20.52;12.32;;;1.70;99.90;;;;;;6270872;22;20012;-68
2023/11/28 00:21:19;;;;;;;20.75;11.43;;;1.70;99.90;;;;;;6270542;22;20074;-69
2023/11/28 00:24:06;;;;;;;22.10;13.30;;;1.70;99.90;;;;;;6269597;22;20019;-68
2023/11/28 00:26:52;;;;;;;22.10;11.80;;;1.70;99.90;;;;;;6271893;22;20069;-68
2023/11/28 00:29:38;;;;;;;17.52;10.43;;;1.70;99.90;;;;;;6270946;22;20434;-68
2023/11/28 00:32:24;;;;;;;18.80;11.80;;;1.70;99.90;;;;;;6272307;22;20044;-68
2023/11/28 00:35:10;;;;;;;18.35;10.82;;;1.70;99.90;;;;;;6270238;22;20008;-67
2023/11/28 00:37:57;;;;;;;19.83;11.02;;;1.70;99.90;;;;;;6270963;22;20008;-67
2023/11/28 00:40:48;;;;;;;16.92;10.48;;;1.70;99.90;;;;;;6270469;22;20019;-67
2023/11/28 00:43:34;;;;;;;17.83;10.55;;;1.70;99.90;;;;;;6272116;22;20445;-67
2023/11/28 00:46:20;;;;;;;20.75;11.20;;;1.70;99.90;;;;;;6271596;22;20057;-67
2023/11/28 00:49:07;;;;;;;13.10;8.57;;;1.70;99.90;;;;;;6270970;22;20030;-69
2023/11/28 00:51:53;;;;;;;16.33;10.45;;;1.70;99.90;;;;;;6270957;22;20008;-68
2023/11/28 00:54:39;;;;;;;22.35;12.68;;;1.70;99.90;;;;;;6271751;22;20345;-67
2023/11/28 00:57:25;;;;;;;22.02;11.13;;;1.70;99.90;;;;;;6270319;22;20345;-68
2023/11/28 01:00:13;;;;;;;18.23;10.38;;;1.70;99.90;;;;;;6272912;22;20521;-72
2023/11/28 01:03:00;;;;;;;17.90;10.95;;;1.70;99.90;;;;;;6270242;22;20433;-72
2023/11/28 01:05:46;;;;;;;17.95;10.00;;;1.70;99.90;;;;;;6271540;22;20034;-73
2023/11/28 01:08:32;;;;;;;23.58;13.18;;;1.70;99.90;;;;;;6270987;22;20085;-72
2023/11/28 01:11:18;;;;;;;22.40;12.20;;;1.70;99.90;;;;;;6271824;22;20023;-71
2023/11/28 01:14:04;;;;;;;21.40;12.98;;;1.70;99.90;;;;;;6248020;22;20076;-72
2023/11/28 01:16:50;;;;;;;24.73;12.98;;;1.60;99.90;;;;;;6271823;22;20069;-71
2023/11/28 01:19:38;;;;;;;22.63;12.23;;;1.60;99.90;;;;;;6271375;22;20004;-72
2023/11/28 01:22:24;;;;;;;23.70;12.77;;;1.70;99.90;;;;;;6270580;22;20011;-72
2023/11/28 01:25:10;;;;;;;20.65;12.23;;;1.60;99.90;;;;;;6272093;22;20077;-72
2023/11/28 01:27:56;;;;;;;22.38;12.18;;;1.60;99.90;;;;;;6271788;22;20008;-72
2023/11/28 01:30:42;;;;;;;22.17;13.43;;;1.60;99.90;;;;;;6268817;22;20020;-73
2023/11/28 01:33:28;;;;;;;22.85;13.88;;;1.60;99.90;;;;;;6270178;22;20012;-72
2023/11/28 01:36:14;;;;;;;22.92;13.88;;;1.60;99.90;;;;;;6271320;22;20043;-72
2023/11/28 01:39:00;;;;;;;23.05;14.10;;;1.60;99.90;;;;;;6269727;22;20671;-72
2023/11/28 01:41:47;;;;;;;22.70;13.05;;;1.60;99.90;;;;;;6271605;22;20457;-72
2023/11/28 01:44:33;;;;;;;25.70;13.82;;;1.60;99.90;;;;;;6271627;22;20342;-73
2023/11/28 01:47:19;;;;;;;20.08;13.05;;;1.60;99.90;;;;;;6271082;22;20392;-73
2023/11/28 01:50:05;;;;;;;19.58;12.05;;;1.60;99.90;;;;;;6269885;22;20034;-72
2023/11/28 01:52:52;;;;;;;20.52;12.25;;;1.50;99.90;;;;;;6270447;22;20035;-73
2023/11/28 01:55:39;;;;;;;21.15;12.60;;;1.50;99.90;;;;;;6270463;22;20008;-73
2023/11/28 01:58:24;;;;;;;19.50;11.02;;;1.50;99.90;;;;;;6271722;22;20019;-68
2023/11/28 02:01:11;;;;;;;19.65;11.93;;;1.40;99.90;;;;;;6270225;22;20095;-68
2023/11/28 02:03:57;;;;;;;22.38;12.80;;;1.40;99.90;;;;;;6269923;22;20042;-68
2023/11/28 02:06:45;;;;;;;19.45;11.52;;;1.40;99.90;;;;;;6271131;22;20007;-67
2023/11/28 02:09:31;;;;;;;22.40;11.48;;;1.40;99.90;;;;;;6270477;22;20020;-68
2023/11/28 02:12:17;;;;;;;25.67;12.10;;;1.30;99.90;;;;;;6269403;22;20011;-69
2023/11/28 02:15:03;;;;;;;20.55;11.40;;;1.30;99.90;;;;;;6270656;22;20017;-69
2023/11/28 02:17:49;;;;;;;22.20;12.65;;;1.30;99.90;;;;;;6270652;22;20438;-69
2023/11/28 02:20:36;;;;;;;22.27;12.10;;;1.20;99.90;;;;;;6270833;22;20380;-69
2023/11/28 02:23:22;;;;;;;19.70;11.00;;;1.20;99.90;;;;;;6269587;22;20020;-69
2023/11/28 02:26:21;;;;;;;20.95;10.68;;;1.20;99.90;;;;;;6272235;22;20399;-67
2023/11/28 02:29:07;;;;;;;19.25;9.68;;;1.20;99.90;;;;;;6270371;22;20048;-66
2023/11/28 02:31:52;;;;;;;20.52;11.57;;;1.20;99.90;;;;;;6270310;22;20041;-68
2023/11/28 02:34:39;;;;;;;18.23;10.98;;;1.20;99.90;;;;;;6270350;22;20008;-67
2023/11/28 02:37:25;;;;;;;17.52;9.55;;;1.20;99.90;;;;;;6267880;22;20018;-69
2023/11/28 02:40:11;;;;;;;24.85;12.27;;;1.20;99.90;;;;;;6269785;22;20355;-68
2023/11/28 02:42:57;;;;;;;23.25;11.43;;;1.20;99.90;;;;;;6268396;22;20011;-69
2023/11/28 02:45:47;;;;;;;20.33;12.02;;;1.10;99.90;;;;;;6270262;22;20011;-69
2023/11/28 02:48:33;;;;;;;21.25;10.75;;;1.10;99.90;;;;;;6269938;22;20019;-69
2023/11/28 02:51:21;;;;;;;21.92;10.70;;;1.10;99.90;;;;;;6240193;23;20020;-70
2023/11/28 02:54:07;;;;;;;19.33;10.15;;;1.10;99.90;;;;;;6216679;23;20016;-70
2023/11/28 02:56:53;;;;;;;22.60;11.63;;;1.10;99.90;;;;;;6216368;23;20012;-68
2023/11/28 02:59:39;;;;;;;16.25;9.32;;;1.10;99.90;;;;;;6239168;23;20004;-69
2023/11/28 03:02:26;;;;;;;18.80;9.20;;;1.10;99.90;;;;;;6218730;23;20019;-70
2023/11/28 03:05:12;;;;;;;17.98;9.82;;;1.10;99.90;;;;;;6240330;22;20020;-70
2023/11/28 03:07:58;;;;;;;20.35;10.23;;;1.10;99.90;;;;;;6242098;23;20138;-70
2023/11/28 03:10:44;;;;;;;18.95;9.65;;;1.10;99.90;;;;;;6238282;23;20051;-70
2023/11/28 03:13:30;;;;;;;16.63;8.93;;;1.10;99.90;;;;;;6240070;23;20062;-71
2023/11/28 03:16:16;;;;;;;19.20;10.32;;;1.10;99.90;;;;;;6241269;23;20008;-71
2023/11/28 03:19:02;;;;;;;18.42;8.93;;;1.00;99.90;;;;;;6237030;23;20797;-70
2023/11/28 03:21:48;;;;;;;15.95;8.20;;;1.00;99.90;;;;;;6240706;23;20058;-70
2023/11/28 03:24:34;;;;;;;16.42;8.38;;;1.00;99.90;;;;;;6240544;23;20122;-70
2023/11/28 03:27:20;;;;;;;12.45;7.55;;;1.00;99.90;;;;;;6241043;23;20004;-69
2023/11/28 03:30:07;;;;;;;12.68;7.15;;;0.90;99.90;;;;;;6239743;23;20031;-70
2023/11/28 03:32:53;;;;;;;14.32;7.72;;;0.90;99.90;;;;;;6241019;23;20008;-70
2023/11/28 03:35:39;;;;;;;16.58;9.05;;;0.90;99.90;;;;;;6240712;23;20571;-69
2023/11/28 03:38:24;;;;;;;14.10;7.50;;;0.90;99.90;;;;;;6242101;23;20412;-68
2023/11/28 03:41:10;;;;;;;13.57;8.90;;;0.90;99.90;;;;;;6241619;23;20357;-69
2023/11/28 03:43:58;;;;;;;12.77;7.90;;;0.90;99.90;;;;;;6241610;23;20346;-67
2023/11/28 03:46:44;;;;;;;13.70;7.68;;;0.90;99.90;;;;;;6241285;23;20019;-67
2023/11/28 03:49:31;;;;;;;11.00;7.00;;;0.90;99.90;;;;;;6251243;22;20102;-66
2023/11/28 03:52:17;;;;;;;15.65;7.88;;;1.00;99.90;;;;;;6269699;22;20039;-67
2023/11/28 03:55:03;;;;;;;13.75;7.68;;;1.00;99.90;;;;;;6268516;22;20022;-67
2023/11/28 03:57:49;;;;;;;11.07;6.65;;;1.00;99.90;;;;;;6269518;22;20004;-67
2023/11/28 04:00:35;;;;;;;13.02;6.50;;;1.00;99.90;;;;;;6268717;22;20066;-67
2023/11/28 04:03:21;;;;;;;11.23;7.18;;;1.00;99.90;;;;;;6272282;22;20014;-70
2023/11/28 04:06:08;;;;;;;11.85;5.88;;;1.00;99.90;;;;;;6272219;22;20010;-70
2023/11/28 04:08:54;;;;;;;13.07;7.00;;;0.90;99.90;;;;;;6269639;22;20008;-70
2023/11/28 04:11:40;;;;;;;12.43;6.22;;;0.90;99.90;;;;;;6271064;22;20011;-69
2023/11/28 04:14:26;;;;;;;13.10;6.60;;;0.90;99.90;;;;;;6272089;22;20019;-70
2023/11/28 04:17:12;;;;;;;12.50;7.18;;;0.90;99.90;;;;;;6272535;22;20010;-70
2023/11/28 04:19:57;;;;;;;12.73;6.97;;;0.90;99.90;;;;;;6273459;22;20017;-70
2023/11/28 04:22:43;;;;;;;11.23;6.32;;;0.90;99.90;;;;;;6272444;22;20046;-70
2023/11/28 04:25:29;;;;;;;11.63;5.80;;;0.90;99.90;;;;;;6270888;22;20011;-71
2023/11/28 04:28:15;;;;;;;10.75;5.60;;;0.90;99.90;;;;;;6272226;22;20008;-71
2023/11/28 04:31:01;;;;;;;10.95;6.18;;;0.90;99.90;;;;;;6271707;22;20074;-67
2023/11/28 04:33:47;;;;;;;11.25;6.63;;;0.90;99.90;;;;;;6272414;22;20388;-68
2023/11/28 04:36:33;;;;;;;8.80;4.63;;;0.90;99.90;;;;;;6249394;22;20008;-67
2023/11/28 04:39:19;;;;;;;11.27;6.40;;;0.90;99.90;;;;;;6272459;22;20011;-67
2023/11/28 04:42:05;;;;;;;11.65;5.70;;;0.90;99.90;;;;;;6271189;22;20043;-68
2023/11/28 04:44:51;;;;;;;8.52;5.28;;;0.90;99.90;;;;;;6272007;22;20019;-67
2023/11/28 04:47:37;;;;;;;10.93;5.78;;;0.90;99.90;;;;;;6272439;22;20087;-71
2023/11/28 04:50:23;;;;;;;11.50;5.90;;;0.90;99.90;;;;;;6268098;22;20114;-70
2023/11/28 04:53:09;;;;;;;12.70;5.28;;;1.00;99.90;;;;;;6271429;22;20442;-71
2023/11/28 04:55:55;;;;;;;10.40;5.65;;;0.90;99.90;;;;;;6271398;22;20314;-71
2023/11/28 04:58:42;;;;;;;9.85;5.38;;;0.90;99.90;;;;;;6270644;22;20031;-68
2023/11/28 05:01:28;;;;;;;9.50;4.80;;;1.00;99.90;;;;;;6271535;22;20507;-68
2023/11/28 05:04:14;;;;;;;9.23;4.75;;;1.00;99.90;;;;;;6271091;22;20000;-68
2023/11/28 05:07:00;;;;;;;8.18;4.43;;;0.90;99.90;;;;;;6271285;22;20007;-68
2023/11/28 05:09:46;;;;;;;8.30;4.57;;;0.90;99.90;;;;;;6272144;22;20024;-67
2023/11/28 05:12:34;;;;;;;11.85;4.82;;;0.90;99.90;;;;;;6271601;22;20025;-67
2023/11/28 05:15:24;;;;;;;8.20;4.88;;;0.90;99.90;;;;;;6270958;22;20038;-67
2023/11/28 05:18:09;;;;;;;8.23;4.18;;;1.00;99.90;;;;;;6269848;22;20008;-71
2023/11/28 05:20:55;;;;;;;8.93;4.80;;;0.90;99.90;;;;;;6272197;22;20282;-72
2023/11/28 05:23:41;;;;;;;6.72;4.00;;;0.90;99.90;;;;;;6272121;22;20008;-72
2023/11/28 05:26:27;;;;;;;9.90;5.18;;;0.90;99.90;;;;;;6250034;22;20008;-72
2023/11/28 05:29:13;;;;;;;6.78;4.50;;;0.90;99.90;;;;;;6270181;22;20441;-66
2023/11/28 05:31:59;;;;;;;9.10;4.70;;;0.80;99.90;;;;;;6272756;22;20082;-66
2023/11/28 05:34:45;;;;;;;9.30;5.00;;;0.80;99.90;;;;;;6270697;22;20088;-66
2023/11/28 05:37:31;;;;;;;8.63;3.83;;;0.80;99.90;;;;;;6270655;22;20058;-66
2023/11/28 05:40:18;;;;;;;8.40;4.55;;;0.80;99.90;;;;;;6271708;22;20057;-66
2023/11/28 05:43:03;;;;;;;8.60;4.72;;;0.90;99.90;;;;;;6270785;22;20047;-65
2023/11/28 05:45:49;;;;;;;9.25;4.78;;;0.80;99.90;;;;;;6271209;22;20087;-65
2023/11/28 05:48:35;;;;;;;10.20;4.68;;;0.90;99.90;;;;;;6271422;22;20011;-65
2023/11/28 05:51:21;;;;;;;9.60;4.82;;;0.90;99.90;;;;;;6270314;22;20154;-66
2023/11/28 05:54:07;;;;;;;10.48;5.55;;;0.90;99.90;;;;;;6248750;22;20015;-65
2023/11/28 05:56:53;;;;;;;10.15;6.30;;;0.90;99.90;;;;;;6270030;22;20004;-65
2023/11/28 05:59:39;;;;;;;13.00;5.63;;;0.90;99.90;;;;;;6271676;22;20080;-65
2023/11/28 06:02:25;;;;;;;9.10;4.97;;;0.90;99.90;;;;;;6268412;22;20011;-65
2023/11/28 06:05:11;;;;;;;9.10;5.38;;;0.90;99.90;;;;;;6270885;22;20030;-65
2023/11/28 06:07:57;;;;;;;12.43;6.53;;;0.90;99.90;;;;;;6269832;22;20421;-65
2023/11/28 06:10:43;;;;;;;13.95;6.30;;;0.90;99.90;;;;;;6270221;22;20015;-65
2023/11/28 06:13:29;;;;;;;14.90;6.00;;;0.90;99.90;;;;;;6270058;22;20042;-65
2023/11/28 06:16:15;;;;;;;12.07;7.13;;;0.90;99.90;;;;;;6271022;22;20426;-65
2023/11/28 06:19:03;;;;;;;10.43;6.43;;;0.90;99.90;;;;;;6271900;22;20008;-65
2023/11/28 06:21:49;;;;;;;13.70;6.50;;;0.90;99.90;;;;;;6269611;22;20011;-65
2023/11/28 06:24:37;;;;;;;11.90;6.38;;;0.90;99.90;;;;;;6270413;22;20011;-73
2023/11/28 06:27:23;;;;;;;13.48;7.35;;;0.90;99.90;;;;;;6269250;22;20017;-73
2023/11/28 06:30:10;;;;;;;14.27;7.75;;;0.90;99.90;;;;;;6270438;22;20023;-72
2023/11/28 06:32:55;;;;;;;12.55;7.25;;;0.90;99.90;;;;;;6269962;22;20453;-73
2023/11/28 06:35:41;;;;;;;13.70;7.45;;;0.90;99.90;;;;;;6264474;22;20148;-73
2023/11/28 06:38:27;;;;;;;14.73;6.97;;;0.90;99.90;;;;;;6269254;22;20008;-72
2023/11/28 06:41:14;;;;;;;12.88;6.55;;;1.00;99.90;;;;;;6270124;22;20003;-64
2023/11/28 06:43:59;;;;;;;13.15;7.00;;;1.00;99.90;;;;;;6271217;22;20438;-65
2023/11/28 06:46:49;;;;;;;10.82;6.43;;;1.00;99.90;;;;;;6270970;22;20015;-65
2023/11/28 06:49:35;;;;;;;11.75;6.03;;;1.00;99.90;;;;;;6270867;22;20016;-65
2023/11/28 06:52:21;;;;;;;12.27;7.38;;;1.00;99.90;;;;;;6269725;22;20011;-65
2023/11/28 06:55:07;;;;;;;10.80;6.53;;;1.00;99.90;;;;;;6270317;22;20050;-66
2023/11/28 06:57:53;;;;;;;14.02;7.45;;;1.10;99.90;;;;;;6270039;22;20377;-66
2023/11/28 07:00:39;;;;;;;16.10;8.65;;;1.00;99.90;;;;;;6268390;22;20015;-66
2023/11/28 07:03:30;;;;;;;13.85;8.07;;;1.10;99.90;;;;;;6268781;22;20011;-66
2023/11/28 07:06:16;;;;;;;13.23;8.35;;;1.00;99.90;;;;;;6270266;22;20072;-65
2023/11/28 07:09:03;;;;;;;15.65;8.30;;;1.10;99.90;;;;;;6270362;22;20004;-61
2023/11/28 07:11:55;;;;;;;17.25;8.90;;;1.10;99.90;;;;;;6269957;22;20079;-63
2023/11/28 07:14:41;;;;;;;18.67;9.82;;;1.10;99.90;;;;;;6271074;22;20038;-62
2023/11/28 07:17:27;;;;;;;17.45;9.25;;;1.00;99.90;;;;;;6269703;22;20098;-66
2023/11/28 07:20:14;;;;;;;17.73;10.25;;;1.10;99.90;;;;;;6266794;22;20004;-65
2023/11/28 07:23:00;;;;;;;22.27;10.55;;;1.00;99.90;;;;;;6265769;22;20008;-71
2023/11/28 07:25:46;;;;;;;22.38;9.90;;;1.00;99.90;;;;;;6270066;22;20342;-71
2023/11/28 07:28:32;;;;;;;22.10;10.43;;;1.10;99.90;;;;;;6268786;22;20012;-68
2023/11/28 07:31:18;;;;;;;27.58;12.20;;;1.10;99.90;;;;;;6268758;22;20099;-67
2023/11/28 07:34:04;;;;;;;23.23;10.95;;;1.10;99.90;;;;;;6268975;22;20056;-68
2023/11/28 07:36:51;;;;;;;20.48;11.43;;;1.10;99.90;;;;;;6266686;22;20015;-68
2023/11/28 07:39:38;;;;;;;20.58;11.82;;;1.10;99.90;;;;;;6247709;22;20573;-69
2023/11/28 07:42:24;;;;;;;23.83;13.13;;;1.10;99.90;;;;;;6267436;22;20380;-68
2023/11/28 07:45:10;;;;;;;22.48;12.75;;;1.20;99.90;;;;;;6270829;22;20004;-68
2023/11/28 07:47:59;;;;;;;20.88;13.13;;;1.10;99.90;;;;;;6269702;22;20095;-67
2023/11/28 07:50:45;;;;;;;22.25;12.25;;;1.20;99.90;;;;;;6267568;22;20027;-69
2023/11/28 07:53:32;;;;;;;25.55;13.68;;;1.20;99.90;;;;;;6268949;22;20493;-68
2023/11/28 07:56:18;;;;;;;26.55;14.35;;;1.20;99.90;;;;;;6268978;22;20011;-67
2023/11/28 07:59:04;;;;;;;27.70;15.27;;;1.20;99.90;;;;;;6269079;22;20422;-67
2023/11/28 08:01:50;;;;;;;24.08;13.90;;;1.20;99.90;;;;;;6270151;22;20080;-68
2023/11/28 08:04:36;;;;;;;21.02;12.68;;;1.10;99.90;;;;;;6246689;22;20016;-68
2023/11/28 08:07:22;;;;;;;24.75;14.00;;;1.10;99.90;;;;;;6268397;22;20163;-67
2023/11/28 08:10:11;;;;;;;28.20;15.07;;;1.10;99.90;;;;;;6269170;22;20372;-68
2023/11/28 08:12:57;;;;;;;24.08;13.05;;;1.10;99.90;;;;;;6267407;22;20082;-69
2023/11/28 08:15:43;;;;;;;22.38;12.85;;;1.10;99.90;;;;;;6267572;22;20011;-66
2023/11/28 08:18:29;;;;;;;24.92;12.20;;;1.10;99.90;;;;;;6267675;22;20013;-68
2023/11/28 08:21:15;;;;;;;21.35;12.25;;;1.10;99.90;;;;;;6268102;22;20337;-67
2023/11/28 08:24:01;;;;;;;23.45;13.65;;;1.10;99.90;;;;;;6267971;22;20011;-67
2023/11/28 08:26:47;;;;;;;27.17;13.27;;;1.10;99.90;;;;;;6268905;22;20039;-67
2023/11/28 08:29:33;;;;;;;24.20;14.52;;;1.20;99.90;;;;;;6269494;22;20099;-67
2023/11/28 08:32:20;;;;;;;24.90;13.18;;;1.20;99.90;;;;;;6269468;22;20011;-68
2023/11/28 08:35:07;;;;;;;21.33;13.23;;;1.20;99.90;;;;;;6267422;22;20007;-68
2023/11/28 08:37:53;;;;;;;25.85;13.10;;;1.20;99.90;;;;;;6268928;22;20378;-72
2023/11/28 08:40:39;;;;;;;26.15;14.05;;;1.20;99.90;;;;;;6269633;22;20426;-69
2023/11/28 08:43:25;;;;;;;23.33;13.90;;;1.20;99.90;;;;;;6268468;22;20476;-69
2023/11/28 08:46:14;;;;;;;28.02;14.63;;;1.20;99.90;;;;;;6269788;22;20008;-68
2023/11/28 08:49:00;;;;;;;25.67;14.05;;;1.20;99.90;;;;;;6271203;22;20011;-68
2023/11/28 08:51:46;;;;;;;22.08;12.70;;;1.20;99.90;;;;;;6271230;22;20657;-67
2023/11/28 08:54:32;;;;;;;24.67;13.27;;;1.30;99.90;;;;;;6271588;22;20128;-67
2023/11/28 08:57:18;;;;;;;32.65;14.82;;;1.30;99.90;;;;;;6271895;22;20010;-68
2023/11/28 09:00:05;;;;;;;22.05;11.85;;;1.30;99.90;;;;;;6270841;22;20008;-67
2023/11/28 09:02:51;;;;;;;22.88;13.35;;;1.30;99.90;;;;;;6269404;22;20073;-67
2023/11/28 09:05:37;;;;;;;22.98;12.52;;;1.40;99.90;;;;;;6272201;22;20012;-68
2023/11/28 09:08:23;;;;;;;22.00;11.93;;;1.40;99.90;;;;;;6270058;22;20016;-68
2023/11/28 09:11:09;;;;;;;23.10;13.13;;;1.40;99.90;;;;;;6270061;22;20023;-70
2023/11/28 09:13:55;;;;;;;25.15;14.30;;;1.50;99.90;;;;;;6270954;22;20008;-69
2023/11/28 09:16:41;;;;;;;22.30;12.38;;;1.50;99.90;;;;;;6271145;22;20014;-68
2023/11/28 09:19:27;;;;;;;20.98;12.70;;;1.50;99.90;;;;;;6270731;22;20012;-68
2023/11/28 09:22:12;;;;;;;22.90;12.50;;;1.40;99.90;;;;;;6269917;22;20016;-69
2023/11/28 09:24:58;;;;;;;19.23;10.98;;;1.40;99.90;;;;;;6246120;22;20014;-69
2023/11/28 09:27:44;;;;;;;22.95;12.63;;;1.50;99.90;;;;;;6270546;22;20017;-68
2023/11/28 09:30:31;;;;;;;25.45;13.32;;;1.50;99.90;;;;;;6270336;22;20019;-69
2023/11/28 09:33:17;;;;;;;21.30;11.65;;;1.50;99.90;;;;;;6268677;22;20014;-69
2023/11/28 09:36:03;;;;;;;19.90;11.05;;;1.50;99.90;;;;;;6270862;22;20100;-69
2023/11/28 09:38:51;;;;;;;19.77;11.35;;;1.50;99.90;;;;;;6248804;22;20045;-69
2023/11/28 09:41:38;;;;;;;18.55;10.88;;;1.50;99.90;;;;;;6270429;22;20038;-68
2023/11/28 09:44:28;;;;;;;20.90;11.98;;;1.50;99.90;;;;;;6269388;22;20011;-67
2023/11/28 09:47:17;;;;;;;19.80;11.30;;;1.60;99.90;;;;;;6269434;22;20011;-67
2023/11/28 09:50:12;;;;;;;20.38;11.70;;;1.60;99.90;;;;;;6268370;22;20027;-68
2023/11/28 09:52:59;;;;;;;17.97;10.30;;;1.60;99.90;;;;;;6270048;22;20008;-68
2023/11/28 09:55:45;;;;;;;20.58;9.60;;;1.60;99.90;;;;;;6269893;22;20008;-68
2023/11/28 09:58:32;;;;;;;19.55;10.25;;;1.60;99.90;;;;;;6270952;22;20488;-68
2023/11/28 10:01:18;;;;;;;17.83;10.88;;;1.60;99.90;;;;;;6270175;22;20015;-67
2023/11/28 10:04:04;;;;;;;16.38;10.18;;;1.60;99.90;;;;;;6269715;22;20007;-67
2023/11/28 10:06:51;;;;;;;19.63;10.27;;;1.70;99.90;;;;;;6270211;22;20113;-67
2023/11/28 10:09:39;;;;;;;17.73;10.00;;;1.70;99.90;;;;;;6270905;22;20077;-67
2023/11/28 10:12:26;;;;;;;21.33;10.93;;;1.70;99.90;;;;;;6267977;22;20419;-68
2023/11/28 10:15:12;;;;;;;19.80;10.90;;;1.60;99.90;;;;;;6270272;22;20058;-68
2023/11/28 10:18:00;;;;;;;19.92;10.55;;;1.60;99.90;;;;;;6269404;22;20437;-68
2023/11/28 10:20:45;;;;;;;16.42;9.30;;;1.70;99.90;;;;;;6262583;22;20550;-68
2023/11/28 10:23:32;;;;;;;17.98;9.45;;;1.70;99.90;;;;;;6269976;22;20090;-68
2023/11/28 10:26:18;;;;;;;20.58;11.20;;;1.70;99.90;;;;;;6268263;22;20007;-68
2023/11/28 10:29:05;;;;;;;19.63;10.77;;;1.70;99.90;;;;;;6272022;22;20338;-69
2023/11/28 10:31:51;;;;;;;18.98;10.15;;;1.60;99.90;;;;;;6269838;22;20023;-68
2023/11/28 10:34:37;;;;;;;17.73;9.48;;;1.70;99.90;;;;;;6270065;22;20015;-68
2023/11/28 10:37:24;;;;;;;18.13;9.75;;;1.70;99.90;;;;;;6269714;22;20007;-69
2023/11/28 10:40:11;;;;;;;17.25;9.77;;;1.70;99.90;;;;;;6269905;22;20019;-68
2023/11/28 10:42:56;;;;;;;18.15;8.55;;;1.80;99.90;;;;;;6269805;22;20333;-69
2023/11/28 10:45:44;;;;;;;16.15;9.35;;;1.80;99.90;;;;;;6270667;22;20487;-68
2023/11/28 10:48:30;;;;;;;17.33;10.70;;;1.70;99.90;;;;;;6270692;22;20090;-68
2023/11/28 10:51:19;;;;;;;20.17;10.02;;;1.70;99.90;;;;;;6270961;22;20027;-69
2023/11/28 10:54:11;;;;;;;19.10;11.05;;;1.70;99.90;;;;;;6270090;22;20045;-68
2023/11/28 10:57:03;;;;;;;18.52;10.90;;;1.70;99.90;;;;;;6271220;22;20023;-68
2023/11/28 10:59:50;;;;;;;17.42;9.93;;;1.70;99.80;;;;;;6268964;22;20023;-68
2023/11/28 11:02:36;;;;;;;16.00;9.02;;;1.70;99.80;;;;;;6270271;22;20018;-67
2023/11/28 11:05:23;;;;;;;14.38;8.55;;;1.80;99.90;;;;;;6270192;22;20011;-67
2023/11/28 11:08:09;;;;;;;14.82;8.27;;;1.80;99.90;;;;;;6270400;22;20560;-67
2023/11/28 11:10:56;;;;;;;18.77;10.70;;;1.80;99.90;;;;;;6270122;22;20016;-67
2023/11/28 11:13:54;;;;;;;16.40;9.13;;;1.80;99.90;;;;;;6269470;22;20012;-66
2023/11/28 11:16:50;;;;;;;20.10;10.88;;;1.80;99.90;;;;;;6271157;22;20035;-67
2023/11/28 11:19:38;;;;;;;16.85;9.10;;;1.80;99.80;;;;;;6268941;22;20060;-66
2023/11/28 11:22:28;;;;;;;15.65;9.00;;;1.80;99.90;;;;;;6246072;22;20012;-67
2023/11/28 11:25:14;;;;;;;17.70;9.18;;;1.80;99.80;;;;;;6269060;22;20057;-67
2023/11/28 11:28:00;;;;;;;16.63;9.05;;;1.80;99.60;;;;;;6270524;22;20346;-68
2023/11/28 11:30:46;;;;;;;14.25;7.97;;;1.70;99.60;;;;;;6270239;22;20438;-68
2023/11/28 11:33:34;;;;;;;14.30;8.95;;;1.80;99.70;;;;;;6269096;22;20015;-68
2023/11/28 11:36:20;;;;;;;17.25;9.05;;;1.70;99.60;;;;;;6269474;22;20486;-68
2023/11/28 11:39:17;;;;;;;14.52;9.40;;;1.70;99.60;;;;;;6268829;22;20341;-66
2023/11/28 11:42:08;;;;;;;16.98;9.20;;;1.70;99.60;;;;;;6269754;22;20020;-66
2023/11/28 11:44:59;;;;;;;16.73;9.07;;;1.70;99.60;;;;;;6269082;22;20065;-66
2023/11/28 11:47:45;;;;;;;15.70;8.70;;;1.60;99.40;;;;;;6270301;22;20018;-66
2023/11/28 11:50:32;;;;;;;12.52;8.15;;;1.70;99.60;;;;;;6269390;22;20578;-66
2023/11/28 11:53:18;;;;;;;16.55;8.70;;;1.70;99.60;;;;;;6270964;22;20000;-66
2023/11/28 11:56:05;;;;;;;13.18;8.38;;;1.70;99.60;;;;;;6269581;22;20016;-68
2023/11/28 11:58:50;;;;;;;14.02;8.32;;;1.70;99.50;;;;;;6270239;22;20003;-68
2023/11/28 12:01:37;;;;;;;16.70;8.05;;;1.70;99.40;;;;;;6270124;22;20019;-69
2023/11/28 12:04:22;;;;;;;15.05;8.75;;;1.70;99.40;;;;;;6270933;22;20495;-68
2023/11/28 12:07:13;;;;;;;16.40;9.05;;;1.70;99.40;;;;;;6269728;22;20805;-67
2023/11/28 12:10:11;;;;;;;15.68;8.32;;;1.70;99.40;;;;;;6269103;22;20024;-67
2023/11/28 12:12:57;;;;;;;12.57;8.13;;;1.70;99.40;;;;;;6269082;22;20004;-67
2023/11/28 12:15:45;;;;;;;17.35;9.45;;;1.60;99.30;;;;;;6270337;22;20090;-67
2023/11/28 12:18:31;;;;;;;16.25;8.90;;;1.60;99.30;;;;;;6268618;22;20003;-67
2023/11/28 12:21:18;;;;;;;14.52;8.00;;;1.50;99.20;;;;;;6269536;22;20109;-66
2023/11/28 12:24:04;;;;;;;15.00;9.00;;;1.50;99.20;;;;;;6272707;22;20445;-67
2023/11/28 12:26:50;;;;;;;17.50;9.15;;;1.50;99.40;;;;;;6251073;22;20083;-67
2023/11/28 12:29:37;;;;;;;13.98;8.70;;;1.50;99.40;;;;;;6271856;22;20365;-67
2023/11/28 12:32:23;;;;;;;12.15;7.95;;;1.50;99.40;;;;;;6270264;22;20095;-67
2023/11/28 12:35:09;;;;;;;14.30;7.68;;;1.50;99.50;;;;;;6270969;22;20099;-67
2023/11/28 12:37:55;;;;;;;17.17;9.55;;;1.50;99.40;;;;;;6271974;22;20096;-67
2023/11/28 12:40:44;;;;;;;17.15;9.95;;;1.40;99.30;;;;;;6271213;22;20000;-67
2023/11/28 12:43:34;;;;;;;16.17;8.60;;;1.40;99.30;;;;;;6270573;22;20012;-67
2023/11/28 12:46:20;;;;;;;13.20;8.18;;;1.40;99.20;;;;;;6271191;22;20004;-65
2023/11/28 12:49:10;;;;;;;14.27;8.52;;;1.30;99.20;;;;;;6270901;22;20106;-65
2023/11/28 12:51:58;;;;;;;15.77;9.63;;;1.30;99.30;;;;;;6272523;22;20050;-66
2023/11/28 12:54:44;;;;;;;12.38;7.57;;;1.30;99.20;;;;;;6271551;22;20344;-66
2023/11/28 12:57:31;;;;;;;14.80;8.32;;;1.30;99.30;;;;;;6271895;22;20038;-66
2023/11/28 13:00:17;;;;;;;20.35;10.10;;;1.30;99.20;;;;;;6270084;22;20015;-66
2023/11/28 13:03:03;;;;;;;13.38;7.40;;;1.30;99.30;;;;;;6271491;22;20012;-68
2023/11/28 13:05:49;;;;;;;26.67;11.98;;;1.30;99.40;;;;;;6271378;22;20012;-68
2023/11/28 13:08:35;;;;;;;28.98;11.52;;;1.40;99.50;;;;;;6272097;22;20018;-68
2023/11/28 13:11:22;;;;;;;25.95;10.20;;;1.40;99.50;;;;;;6271091;22;20015;-68
2023/11/28 13:14:08;;;;;;;21.90;10.52;;;1.40;99.50;;;;;;6272027;22;20015;-68
2023/11/28 13:16:54;;;;;;;15.27;8.77;;;1.40;99.50;;;;;;6271130;22;20026;-68
2023/11/28 13:19:40;;;;;;;19.65;9.48;;;1.50;99.60;;;;;;6270775;22;20071;-68
2023/11/28 13:22:26;;;;;;;16.70;9.25;;;1.50;99.60;;;;;;6270984;22;20016;-69
2023/11/28 13:25:12;;;;;;;11.80;7.93;;;1.60;99.50;;;;;;6270950;22;20405;-68
2023/11/28 13:27:58;;;;;;;14.43;7.05;;;1.60;99.50;;;;;;6272082;22;20007;-68
2023/11/28 13:30:44;;;;;;;18.58;8.02;;;1.60;99.50;;;;;;6271926;22;20066;-68
2023/11/28 13:33:30;;;;;;;13.43;7.80;;;1.60;99.20;;;;;;6271189;22;20012;-68
2023/11/28 13:36:16;;;;;;;13.75;7.45;;;1.50;99.30;;;;;;6272458;22;20019;-68
2023/11/28 13:39:02;;;;;;;12.50;6.85;;;1.60;99.30;;;;;;6271711;22;20043;-68
2023/11/28 13:41:48;;;;;;;12.15;6.65;;;1.60;99.30;;;;;;6269989;22;20361;-68
2023/11/28 13:44:34;;;;;;;22.65;8.80;;;1.70;99.30;;;;;;6271631;22;20030;-68
2023/11/28 13:47:21;;;;;;;26.45;9.13;;;1.80;99.40;;;;;;6271678;22;20012;-68
2023/11/28 13:50:09;;;;;;;14.60;8.18;;;1.90;99.40;;;;;;6271637;22;20019;-68
2023/11/28 13:52:55;;;;;;;14.65;8.57;;;1.90;99.40;;;;;;6270880;22;20023;-68
2023/11/28 13:55:41;;;;;;;15.88;7.90;;;2.00;99.30;;;;;;6270353;22;20019;-68
2023/11/28 13:58:27;;;;;;;13.07;7.22;;;1.90;99.20;;;;;;6271361;22;20014;-68
2023/11/28 14:01:13;;;;;;;10.20;7.15;;;1.90;99.30;;;;;;6270773;22;20061;-68
2023/11/28 14:04:00;;;;;;;12.48;7.95;;;1.90;99.20;;;;;;6271114;22;20007;-68
2023/11/28 14:06:45;;;;;;;17.02;8.30;;;2.00;99.20;;;;;;6271053;22;20091;-68
2023/11/28 14:09:31;;;;;;;15.43;8.48;;;2.00;99.20;;;;;;6271529;22;20015;-69
2023/11/28 14:12:17;;;;;;;19.90;8.57;;;2.00;99.10;;;;;;6271490;22;20050;-68
2023/11/28 14:15:05;;;;;;;13.27;7.82;;;2.00;99.00;;;;;;6269366;22;20016;-67
2023/11/28 14:17:51;;;;;;;37.35;10.77;;;2.10;99.00;;;;;;6271345;22;20392;-68
2023/11/28 14:20:37;;;;;;;18.30;8.63;;;2.10;99.00;;;;;;6271266;22;20011;-68
2023/11/28 14:23:23;;;;;;;56.60;13.48;;;2.10;99.00;;;;;;6271554;22;20093;-68